Flight Track Log - Related Links

Times and Time Zones

All times are in EDT time to prevent confusion due to time zone crossing. See the SWA2697 flight status page for this flight to view local times or setup timezone preferences in your user account.

Time Position Orientation Groundspeed Altitude Reporting Facility
EDT Latitude Longitude Course Direction KTS MPH feet Rate Location/Type
Thu 10:22:13 PM 38.7333 -121.6000 129° Southeast 165 190 1,900  Level Northern Cal TRACON
Thu 10:23:13 PM 38.7167 -121.5333 108° East 235 270 4,400 2,750 Climbing Northern Cal TRACON
Thu 10:24:13 PM 38.6500 -121.4833 150° Southeast 269 310 7,400 2,300 Climbing Northern Cal TRACON
Thu 10:25:13 PM 38.6167 -121.4000 117° Southeast 311 358 9,000 1,253 Climbing Northern Cal TRACON
Thu 10:25:44 PM 38.5939 -121.3561 124° Southeast 292 336 9,300 1,419 Climbing Oakland Center
Thu 10:26:46 PM 38.5467 -121.2661 124° Southeast 302 348 11,200 2,448 Climbing Oakland Center
Thu 10:27:00 PM 38.4255 -121.3755 129° Southeast  Level Estimated
Thu 10:27:49 PM 38.4867 -121.1567 125° Southeast 369 425 14,400  Level Oakland Center
Thu 10:28:48 PM 38.4247 -121.0397 124° Southeast 387 445 17,800 2,300 Climbing Oakland Center
Thu 10:29:49 PM 38.3594 -120.9178 124° Southeast 411 473 19,000 1,073 Climbing Oakland Center
Thu 10:30:51 PM 38.2928 -120.7925 124° Southeast 425 489 20,000 1,707 Climbing Oakland Center
Thu 10:31:52 PM 38.2150 -120.6636 128° Southeast 454 522 22,500 2,262 Climbing Oakland Center
Thu 10:32:53 PM 38.1111 -120.5608 142° Southeast 469 540 24,600 1,918 Climbing Oakland Center
Thu 10:33:54 PM 38.0014 -120.4542 143° Southeast 492 566 26,400 2,410 Climbing Oakland Center
Thu 10:34:55 PM 37.8908 -120.3467 142° Southeast 499 574 29,500 2,459 Climbing Oakland Center
Thu 10:35:56 PM 37.7592 -120.2206 143° Southeast 497 572 31,400 2,049 Climbing Oakland Center
Thu 10:36:58 PM 37.6469 -120.1278 147° Southeast 482 555 33,700 1,756 Climbing Oakland Center
Thu 10:37:59 PM 37.5150 -120.0853 166° South 479 551 35,000 1,033 Climbing Oakland Center
Thu 10:39:00 PM 37.3817 -120.0433 166° South 490 564 35,800 1,082 Climbing Oakland Center
Thu 10:40:01 PM 37.2486 -120.0019 166° South 491 565 37,200 1,279 Climbing Oakland Center
Thu 10:41:02 PM 37.1144 -119.9608 166° South 492 566 38,400 885 Climbing Oakland Center
Thu 10:42:03 PM 36.9728 -119.9172 166° South 499 574 39,000 295 Climbing Oakland Center
Thu 10:43:04 PM 36.8372 -119.8767 167° South 501 577 39,000  Level Oakland Center
Thu 10:44:06 PM 36.7006 -119.8328 166° South 501 577 39,000  Level Oakland Center
Thu 10:45:07 PM 36.5647 -119.7917 166° South 499 574 39,000  Level Oakland Center
Thu 10:46:08 PM 36.4278 -119.7500 166° South 503 579 39,000  Level Oakland Center
Thu 10:47:09 PM 36.2911 -119.7094 167° South 502 578 39,000  Level Oakland Center
Thu 10:48:10 PM 36.1547 -119.6678 166° South 504 580 39,000  Level Oakland Center
Thu 10:49:11 PM 36.0186 -119.6269 166° South 502 578 39,000  Level Oakland Center
Thu 10:50:12 PM 35.8842 -119.6183 177° South 489 563 39,000  Level Oakland Center
Thu 10:51:13 PM 35.7494 -119.6231 182° South 483 556 39,000  Level Oakland Center
Thu 10:52:14 PM 35.5867 -119.6294 182° South 483 556 39,000  Level Oakland Center
Thu 10:53:15 PM 35.4542 -119.6342 182° South 476 548 39,000  Level Oakland Center
Thu 10:54:16 PM 35.3208 -119.6400 182° South 475 547 39,000  Level Oakland Center
Thu 10:55:17 PM 35.1944 -119.5903 162° South 488 562 39,000  Level Oakland Center
Thu 10:56:19 PM 35.0797 -119.4919 145° Southeast 500 575 39,000  Level Oakland Center
Thu 10:56:34 PM 35.0583 -119.4719 143° Southeast 497 572 39,000 -789 Level Los Angeles Center
Thu 10:57:35 PM 34.9442 -119.3761 145° Southeast 497 572 38,000 -1,756 Descending Los Angeles Center
Thu 10:58:37 PM 34.8361 -119.2836 145° Southeast 481 554 35,400 -2,710 Descending Los Angeles Center
Thu 10:59:39 PM 34.7269 -119.1900 145° Southeast 480 552 32,400 -2,829 Descending Los Angeles Center
Thu 11:00:40 PM 34.6050 -119.0894 146° Southeast 469 540 29,600 -3,268 Descending Los Angeles Center
Thu 11:01:42 PM 34.4978 -119.0028 146° Southeast 465 535 25,700 -2,468 Descending Los Angeles Center
Thu 11:02:44 PM 34.4039 -118.9222 145° Southeast 416 479 24,500 -1,597 Descending Los Angeles Center
Thu 11:03:46 PM 34.3064 -118.8614 153° Southeast 396 456 22,400 -1,867 Descending Los Angeles Center
Thu 11:04:59 PM 34.2008 -118.8233 163° South 393 452 20,300 -2,267 Descending Los Angeles Center
Thu 11:06:01 PM 34.0597 -118.7719 163° South 386 444 17,300 -2,565 Descending Los Angeles Center
Thu 11:07:03 PM 33.9533 -118.7333 163° South 375 432 15,000 -1,645 Descending Los Angeles Center
Thu 11:08:05 PM 33.8581 -118.6986 163° South 360 414 13,900 -488 Descending Los Angeles Center
Thu 11:09:06 PM 33.7703 -118.6664 163° South 354 407 14,000 -244 Climbing Los Angeles Center
Thu 11:10:08 PM 33.6767 -118.6339 164° South 357 411 13,400 -919 Descending Los Angeles Center
Thu 11:11:10 PM 33.5675 -118.5814 158° South 350 403 12,100 -1,463 Descending Los Angeles Center
Thu 11:12:11 PM 33.5222 -118.4989 123° Southeast 328 377 10,400 -1,220 Descending Los Angeles Center
Thu 11:13:13 PM 33.5325 -118.4003 83° East 307 353 9,600 -823 Descending Los Angeles Center
Thu 11:14:15 PM 33.5611 -118.3172 68° East 284 327 8,700 -829 Descending Los Angeles Center
Thu 11:15:16 PM 33.5967 -118.2494 58° Northeast 258 297 7,900 -976 Descending Los Angeles Center
Thu 11:16:18 PM 33.6361 -118.1694 59° Northeast 243 280 6,700 -1,121 Descending Los Angeles Center
Thu 11:17:03 PM 33.6667 -118.1167 55° Northeast 228 262 5,900 -971 Descending Southern California TRACON
Thu 11:18:03 PM 33.7000 -118.0500 59° Northeast 226 260 5,000 -429 Descending Southern California TRACON
Thu 11:19:09 PM 33.7333 -117.9833 59° Northeast 209 241 5,000 -190 Level Southern California TRACON
Thu 11:20:09 PM 33.7500 -117.9333 68° East 206 237 4,600 -730 Descending Southern California TRACON
Thu 11:21:04 PM 33.7833 -117.8833 51° Northeast 198 228 3,600 -835 Descending Southern California TRACON
Thu 11:22:04 PM 33.8167 -117.8333 51° Northeast 182 209 3,000 -300 Descending Southern California TRACON
Thu 11:23:04 PM 33.8333 -117.7833 68° East 163 188 3,000 -200 Level Southern California TRACON
Thu 11:24:04 PM 33.7833 -117.8000 195° South 158 182 2,600 -694 Descending Southern California TRACON
Thu 11:25:05 PM 33.7500 -117.8167 203° Southwest 132 152 1,600 -793 Descending Southern California TRACON
Thu 11:26:05 PM 33.7167 -117.8333 203° Southwest 131 151 1,000 -650 Descending Southern California TRACON
Thu 11:27:05 PM 33.6833 -117.8667 220° Southwest 128 147 300 -700 Descending Southern California TRACON

Login

Don't have an account? Register now (free) for customized features, flight alerts, and more!